sensor_id;sensor_type;location;lat;lon;timestamp;temperature;humidity
15115;DHT22;7658;51.456;7.622;2024-02-28T00:01:52;0.70;99.90
15115;DHT22;7658;51.456;7.622;2024-02-28T00:04:19;0.60;99.90
15115;DHT22;7658;51.456;7.622;2024-02-28T00:06:45;0.60;99.90
15115;DHT22;7658;51.456;7.622;2024-02-28T00:09:14;0.60;99.90
15115;DHT22;7658;51.456;7.622;2024-02-28T00:11:46;0.50;99.90
15115;DHT22;7658;51.456;7.622;2024-02-28T00:14:15;0.50;99.90
15115;DHT22;7658;51.456;7.622;2024-02-28T00:16:45;0.50;99.90
15115;DHT22;7658;51.456;7.622;2024-02-28T00:19:11;0.60;99.90
15115;DHT22;7658;51.456;7.622;2024-02-28T00:21:39;0.50;99.90
15115;DHT22;7658;51.456;7.622;2024-02-28T00:24:06;0.60;99.90
15115;DHT22;7658;51.456;7.622;2024-02-28T00:26:32;0.60;99.90
15115;DHT22;7658;51.456;7.622;2024-02-28T00:28:58;0.60;99.90
15115;DHT22;7658;51.456;7.622;2024-02-28T00:31:23;0.60;99.90
15115;DHT22;7658;51.456;7.622;2024-02-28T00:33:49;0.60;99.90
15115;DHT22;7658;51.456;7.622;2024-02-28T00:36:15;0.60;99.90
15115;DHT22;7658;51.456;7.622;2024-02-28T00:38:41;0.60;99.90
15115;DHT22;7658;51.456;7.622;2024-02-28T00:41:07;0.50;99.90
15115;DHT22;7658;51.456;7.622;2024-02-28T00:43:33;0.50;99.90
15115;DHT22;7658;51.456;7.622;2024-02-28T00:45:59;0.50;99.90
15115;DHT22;7658;51.456;7.622;2024-02-28T00:48:25;0.60;99.90
15115;DHT22;7658;51.456;7.622;2024-02-28T00:50:51;0.70;99.90
15115;DHT22;7658;51.456;7.622;2024-02-28T00:53:17;0.70;99.90
15115;DHT22;7658;51.456;7.622;2024-02-28T00:55:43;0.80;99.90
15115;DHT22;7658;51.456;7.622;2024-02-28T00:58:09;0.80;99.90
15115;DHT22;7658;51.456;7.622;2024-02-28T01:00:35;0.80;99.90
15115;DHT22;7658;51.456;7.622;2024-02-28T01:03:01;0.90;99.90
15115;DHT22;7658;51.456;7.622;2024-02-28T01:05:30;0.90;99.90
15115;DHT22;7658;51.456;7.622;2024-02-28T01:07:56;0.90;99.90
15115;DHT22;7658;51.456;7.622;2024-02-28T01:10:22;0.90;99.90
15115;DHT22;7658;51.456;7.622;2024-02-28T01:12:49;0.80;99.90
15115;DHT22;7658;51.456;7.622;2024-02-28T01:15:15;1.00;99.90
15115;DHT22;7658;51.456;7.622;2024-02-28T01:17:41;1.00;99.90
15115;DHT22;7658;51.456;7.622;2024-02-28T01:20:07;1.00;99.90
15115;DHT22;7658;51.456;7.622;2024-02-28T01:22:34;1.00;99.90
15115;DHT22;7658;51.456;7.622;2024-02-28T01:25:01;1.10;99.90
15115;DHT22;7658;51.456;7.622;2024-02-28T01:27:28;1.10;99.90
15115;DHT22;7658;51.456;7.622;2024-02-28T01:29:54;1.10;99.90
15115;DHT22;7658;51.456;7.622;2024-02-28T01:32:19;1.20;99.90
15115;DHT22;7658;51.456;7.622;2024-02-28T01:34:46;1.10;99.90
15115;DHT22;7658;51.456;7.622;2024-02-28T01:37:12;1.10;99.90
15115;DHT22;7658;51.456;7.622;2024-02-28T01:39:37;1.00;99.90
15115;DHT22;7658;51.456;7.622;2024-02-28T01:42:03;1.00;99.90
15115;DHT22;7658;51.456;7.622;2024-02-28T01:44:29;0.90;99.90
15115;DHT22;7658;51.456;7.622;2024-02-28T01:46:55;0.90;99.90
15115;DHT22;7658;51.456;7.622;2024-02-28T01:49:22;1.00;99.90
15115;DHT22;7658;51.456;7.622;2024-02-28T01:51:50;1.10;99.90
15115;DHT22;7658;51.456;7.622;2024-02-28T01:54:16;1.20;99.90
15115;DHT22;7658;51.456;7.622;2024-02-28T01:56:43;1.20;99.90
15115;DHT22;7658;51.456;7.622;2024-02-28T01:59:10;1.10;99.90
15115;DHT22;7658;51.456;7.622;2024-02-28T02:01:37;1.10;99.90
15115;DHT22;7658;51.456;7.622;2024-02-28T02:04:03;1.20;99.90
15115;DHT22;7658;51.456;7.622;2024-02-28T02:06:30;1.10;99.90
15115;DHT22;7658;51.456;7.622;2024-02-28T02:08:56;1.20;99.90
15115;DHT22;7658;51.456;7.622;2024-02-28T02:11:23;1.20;99.90
15115;DHT22;7658;51.456;7.622;2024-02-28T02:13:50;1.10;99.90
15115;DHT22;7658;51.456;7.622;2024-02-28T02:16:17;1.10;99.90
15115;DHT22;7658;51.456;7.622;2024-02-28T02:18:43;1.10;99.90
15115;DHT22;7658;51.456;7.622;2024-02-28T02:21:11;1.00;99.90
15115;DHT22;7658;51.456;7.622;2024-02-28T02:23:38;1.10;99.90
15115;DHT22;7658;51.456;7.622;2024-02-28T02:26:07;1.20;99.90
15115;DHT22;7658;51.456;7.622;2024-02-28T02:28:33;1.20;99.90
15115;DHT22;7658;51.456;7.622;2024-02-28T02:30:59;1.20;99.90
15115;DHT22;7658;51.456;7.622;2024-02-28T02:33:25;1.10;99.90
15115;DHT22;7658;51.456;7.622;2024-02-28T02:35:52;1.00;99.90
15115;DHT22;7658;51.456;7.622;2024-02-28T02:38:18;1.00;99.90
15115;DHT22;7658;51.456;7.622;2024-02-28T02:40:48;0.90;99.90
15115;DHT22;7658;51.456;7.622;2024-02-28T02:43:14;0.90;99.90
15115;DHT22;7658;51.456;7.622;2024-02-28T02:45:40;0.90;99.90
15115;DHT22;7658;51.456;7.622;2024-02-28T02:48:06;0.90;99.90
15115;DHT22;7658;51.456;7.622;2024-02-28T02:50:31;0.90;99.90
15115;DHT22;7658;51.456;7.622;2024-02-28T02:52:57;0.80;99.90
15115;DHT22;7658;51.456;7.622;2024-02-28T02:55:23;0.90;99.90
15115;DHT22;7658;51.456;7.622;2024-02-28T02:57:49;0.90;99.90
15115;DHT22;7658;51.456;7.622;2024-02-28T03:00:14;1.00;99.90
15115;DHT22;7658;51.456;7.622;2024-02-28T03:02:40;0.90;99.90
15115;DHT22;7658;51.456;7.622;2024-02-28T03:05:07;0.90;99.90
15115;DHT22;7658;51.456;7.622;2024-02-28T03:07:33;0.90;99.90
15115;DHT22;7658;51.456;7.622;2024-02-28T03:09:59;0.90;99.90
15115;DHT22;7658;51.456;7.622;2024-02-28T03:12:25;0.80;99.90
15115;DHT22;7658;51.456;7.622;2024-02-28T03:14:51;0.70;99.90
15115;DHT22;7658;51.456;7.622;2024-02-28T03:17:16;0.60;99.90
15115;DHT22;7658;51.456;7.622;2024-02-28T03:19:42;0.60;99.90
15115;DHT22;7658;51.456;7.622;2024-02-28T03:22:08;0.60;99.90
15115;DHT22;7658;51.456;7.622;2024-02-28T03:24:34;0.60;99.90
15115;DHT22;7658;51.456;7.622;2024-02-28T03:27:01;0.60;99.90
15115;DHT22;7658;51.456;7.622;2024-02-28T03:29:27;0.60;99.90
15115;DHT22;7658;51.456;7.622;2024-02-28T03:31:53;0.60;99.90
15115;DHT22;7658;51.456;7.622;2024-02-28T03:34:19;0.60;99.90
15115;DHT22;7658;51.456;7.622;2024-02-28T03:36:45;0.60;99.90
15115;DHT22;7658;51.456;7.622;2024-02-28T03:39:11;0.60;99.90
15115;DHT22;7658;51.456;7.622;2024-02-28T03:41:37;0.60;99.90
15115;DHT22;7658;51.456;7.622;2024-02-28T03:44:04;0.50;99.90
15115;DHT22;7658;51.456;7.622;2024-02-28T03:46:30;0.60;99.90
15115;DHT22;7658;51.456;7.622;2024-02-28T03:48:56;0.60;99.90
15115;DHT22;7658;51.456;7.622;2024-02-28T03:51:21;0.60;99.90
15115;DHT22;7658;51.456;7.622;2024-02-28T03:53:47;0.70;99.90
15115;DHT22;7658;51.456;7.622;2024-02-28T03:56:13;0.70;99.90
15115;DHT22;7658;51.456;7.622;2024-02-28T03:58:40;0.70;99.90
15115;DHT22;7658;51.456;7.622;2024-02-28T04:01:05;0.70;99.90
15115;DHT22;7658;51.456;7.622;2024-02-28T04:03:31;0.60;99.90
15115;DHT22;7658;51.456;7.622;2024-02-28T04:05:57;0.70;99.90
15115;DHT22;7658;51.456;7.622;2024-02-28T04:08:24;0.60;99.90
15115;DHT22;7658;51.456;7.622;2024-02-28T04:10:50;0.70;99.90
15115;DHT22;7658;51.456;7.622;2024-02-28T04:13:16;0.70;99.90
15115;DHT22;7658;51.456;7.622;2024-02-28T04:15:43;0.70;99.90
15115;DHT22;7658;51.456;7.622;2024-02-28T04:18:11;0.70;99.90
15115;DHT22;7658;51.456;7.622;2024-02-28T04:20:37;0.70;99.90
15115;DHT22;7658;51.456;7.622;2024-02-28T04:23:04;0.80;99.90
15115;DHT22;7658;51.456;7.622;2024-02-28T04:25:30;0.80;99.90
15115;DHT22;7658;51.456;7.622;2024-02-28T04:27:55;0.70;99.90
15115;DHT22;7658;51.456;7.622;2024-02-28T04:30:22;0.70;99.90
15115;DHT22;7658;51.456;7.622;2024-02-28T04:32:48;0.70;99.90
15115;DHT22;7658;51.456;7.622;2024-02-28T04:35:15;0.70;99.90
15115;DHT22;7658;51.456;7.622;2024-02-28T04:37:47;0.70;99.90
15115;DHT22;7658;51.456;7.622;2024-02-28T04:40:13;0.70;99.90
15115;DHT22;7658;51.456;7.622;2024-02-28T04:42:39;0.80;99.90
15115;DHT22;7658;51.456;7.622;2024-02-28T04:45:06;0.80;99.90
15115;DHT22;7658;51.456;7.622;2024-02-28T04:47:32;0.90;99.90
15115;DHT22;7658;51.456;7.622;2024-02-28T04:49:57;0.80;99.90
15115;DHT22;7658;51.456;7.622;2024-02-28T04:52:23;0.80;99.90
15115;DHT22;7658;51.456;7.622;2024-02-28T04:54:51;0.80;99.90
15115;DHT22;7658;51.456;7.622;2024-02-28T04:57:16;0.90;99.90
15115;DHT22;7658;51.456;7.622;2024-02-28T04:59:43;0.90;99.90
15115;DHT22;7658;51.456;7.622;2024-02-28T05:02:10;0.80;99.90
15115;DHT22;7658;51.456;7.622;2024-02-28T05:04:35;0.80;99.90
15115;DHT22;7658;51.456;7.622;2024-02-28T05:07:01;0.80;99.90
15115;DHT22;7658;51.456;7.622;2024-02-28T05:09:28;0.80;99.90
15115;DHT22;7658;51.456;7.622;2024-02-28T05:11:54;0.80;99.90
15115;DHT22;7658;51.456;7.622;2024-02-28T05:14:20;0.80;99.90
15115;DHT22;7658;51.456;7.622;2024-02-28T05:16:47;0.90;99.90
15115;DHT22;7658;51.456;7.622;2024-02-28T05:19:13;0.80;99.90
15115;DHT22;7658;51.456;7.622;2024-02-28T05:21:40;0.80;99.90
15115;DHT22;7658;51.456;7.622;2024-02-28T05:24:07;0.90;99.90
15115;DHT22;7658;51.456;7.622;2024-02-28T05:26:35;0.90;99.90
15115;DHT22;7658;51.456;7.622;2024-02-28T05:29:01;0.90;99.90
15115;DHT22;7658;51.456;7.622;2024-02-28T05:31:28;0.80;99.90
15115;DHT22;7658;51.456;7.622;2024-02-28T05:33:55;0.90;99.90
15115;DHT22;7658;51.456;7.622;2024-02-28T05:36:24;0.90;99.90
15115;DHT22;7658;51.456;7.622;2024-02-28T05:38:52;0.90;99.90
15115;DHT22;7658;51.456;7.622;2024-02-28T05:41:17;0.80;99.90
15115;DHT22;7658;51.456;7.622;2024-02-28T05:43:44;0.80;99.90
15115;DHT22;7658;51.456;7.622;2024-02-28T05:46:11;0.90;99.90
15115;DHT22;7658;51.456;7.622;2024-02-28T05:48:37;0.90;99.90
15115;DHT22;7658;51.456;7.622;2024-02-28T05:51:03;0.80;99.90
15115;DHT22;7658;51.456;7.622;2024-02-28T05:53:30;0.80;99.90
15115;DHT22;7658;51.456;7.622;2024-02-28T05:56:02;0.80;99.90
15115;DHT22;7658;51.456;7.622;2024-02-28T05:58:28;0.80;99.90
15115;DHT22;7658;51.456;7.622;2024-02-28T06:00:54;0.80;99.90
15115;DHT22;7658;51.456;7.622;2024-02-28T06:03:20;0.90;99.90
15115;DHT22;7658;51.456;7.622;2024-02-28T06:05:46;0.90;99.90
15115;DHT22;7658;51.456;7.622;2024-02-28T06:08:13;0.90;99.90
15115;DHT22;7658;51.456;7.622;2024-02-28T06:10:38;1.00;99.90
15115;DHT22;7658;51.456;7.622;2024-02-28T06:13:04;1.00;99.90
15115;DHT22;7658;51.456;7.622;2024-02-28T06:15:30;1.10;99.90
15115;DHT22;7658;51.456;7.622;2024-02-28T06:17:58;1.10;99.90
15115;DHT22;7658;51.456;7.622;2024-02-28T06:20:26;1.10;99.90
15115;DHT22;7658;51.456;7.622;2024-02-28T06:22:52;1.00;99.90
15115;DHT22;7658;51.456;7.622;2024-02-28T06:25:18;1.10;99.90
15115;DHT22;7658;51.456;7.622;2024-02-28T06:27:45;1.10;99.90
15115;DHT22;7658;51.456;7.622;2024-02-28T06:30:12;1.20;99.90
15115;DHT22;7658;51.456;7.622;2024-02-28T06:32:42;1.10;99.90
15115;DHT22;7658;51.456;7.622;2024-02-28T06:35:08;1.10;99.90
15115;DHT22;7658;51.456;7.622;2024-02-28T06:37:35;1.10;99.90
15115;DHT22;7658;51.456;7.622;2024-02-28T06:40:01;1.10;99.90
15115;DHT22;7658;51.456;7.622;2024-02-28T06:42:27;1.10;99.90
15115;DHT22;7658;51.456;7.622;2024-02-28T06:44:54;1.10;99.90
15115;DHT22;7658;51.456;7.622;2024-02-28T06:47:19;1.20;99.90
15115;DHT22;7658;51.456;7.622;2024-02-28T06:49:45;1.20;99.90
15115;DHT22;7658;51.456;7.622;2024-02-28T06:52:12;1.30;99.90
15115;DHT22;7658;51.456;7.622;2024-02-28T06:54:37;1.30;99.90
15115;DHT22;7658;51.456;7.622;2024-02-28T06:57:03;1.30;99.90
15115;DHT22;7658;51.456;7.622;2024-02-28T06:59:29;1.30;99.90
15115;DHT22;7658;51.456;7.622;2024-02-28T07:01:55;1.40;99.90
15115;DHT22;7658;51.456;7.622;2024-02-28T07:04:21;1.40;99.90
15115;DHT22;7658;51.456;7.622;2024-02-28T07:06:46;1.50;99.90
15115;DHT22;7658;51.456;7.622;2024-02-28T07:09:12;1.50;99.90
15115;DHT22;7658;51.456;7.622;2024-02-28T07:11:38;1.50;99.90
15115;DHT22;7658;51.456;7.622;2024-02-28T07:14:04;1.50;99.90
15115;DHT22;7658;51.456;7.622;2024-02-28T07:16:30;1.60;99.90
15115;DHT22;7658;51.456;7.622;2024-02-28T07:19:00;1.70;99.90
15115;DHT22;7658;51.456;7.622;2024-02-28T07:21:26;1.70;99.90
15115;DHT22;7658;51.456;7.622;2024-02-28T07:23:52;1.70;99.90
15115;DHT22;7658;51.456;7.622;2024-02-28T07:26:18;1.80;99.90
15115;DHT22;7658;51.456;7.622;2024-02-28T07:28:43;1.80;99.90
15115;DHT22;7658;51.456;7.622;2024-02-28T07:31:18;1.90;99.90
15115;DHT22;7658;51.456;7.622;2024-02-28T07:33:44;1.90;99.90
15115;DHT22;7658;51.456;7.622;2024-02-28T07:36:10;1.90;99.90
15115;DHT22;7658;51.456;7.622;2024-02-28T07:38:36;1.90;99.90
15115;DHT22;7658;51.456;7.622;2024-02-28T07:41:02;2.00;99.90
15115;DHT22;7658;51.456;7.622;2024-02-28T07:43:28;2.00;99.90
15115;DHT22;7658;51.456;7.622;2024-02-28T07:45:58;2.10;99.90
15115;DHT22;7658;51.456;7.622;2024-02-28T07:48:24;2.20;99.90
15115;DHT22;7658;51.456;7.622;2024-02-28T07:50:50;2.30;99.90
15115;DHT22;7658;51.456;7.622;2024-02-28T07:53:17;2.30;99.90
15115;DHT22;7658;51.456;7.622;2024-02-28T07:55:42;2.40;99.90
15115;DHT22;7658;51.456;7.622;2024-02-28T07:58:08;2.50;99.90
15115;DHT22;7658;51.456;7.622;2024-02-28T08:00:35;2.70;99.90
15115;DHT22;7658;51.456;7.622;2024-02-28T08:03:01;2.70;99.90
15115;DHT22;7658;51.456;7.622;2024-02-28T08:05:27;2.80;99.90
15115;DHT22;7658;51.456;7.622;2024-02-28T08:07:53;2.90;99.90
15115;DHT22;7658;51.456;7.622;2024-02-28T08:10:19;3.00;99.90
15115;DHT22;7658;51.456;7.622;2024-02-28T08:12:45;3.10;99.90
15115;DHT22;7658;51.456;7.622;2024-02-28T08:15:11;3.10;99.90
15115;DHT22;7658;51.456;7.622;2024-02-28T08:17:37;3.20;99.90
15115;DHT22;7658;51.456;7.622;2024-02-28T08:20:04;3.20;99.90
15115;DHT22;7658;51.456;7.622;2024-02-28T08:22:33;3.30;99.90
15115;DHT22;7658;51.456;7.622;2024-02-28T08:24:59;3.30;99.90
15115;DHT22;7658;51.456;7.622;2024-02-28T08:27:25;3.30;99.90
15115;DHT22;7658;51.456;7.622;2024-02-28T08:29:51;3.30;99.90
15115;DHT22;7658;51.456;7.622;2024-02-28T08:32:17;3.40;99.90
15115;DHT22;7658;51.456;7.622;2024-02-28T08:34:44;3.50;99.90
15115;DHT22;7658;51.456;7.622;2024-02-28T08:37:12;3.60;99.90
15115;DHT22;7658;51.456;7.622;2024-02-28T08:39:38;3.60;99.90
15115;DHT22;7658;51.456;7.622;2024-02-28T08:42:05;3.60;99.90
15115;DHT22;7658;51.456;7.622;2024-02-28T08:44:31;3.70;99.90
15115;DHT22;7658;51.456;7.622;2024-02-28T08:46:57;3.70;99.90
15115;DHT22;7658;51.456;7.622;2024-02-28T08:49:22;3.70;99.90
15115;DHT22;7658;51.456;7.622;2024-02-28T08:51:49;3.60;99.90
15115;DHT22;7658;51.456;7.622;2024-02-28T08:54:15;3.70;99.90
15115;DHT22;7658;51.456;7.622;2024-02-28T08:56:40;3.80;99.90
15115;DHT22;7658;51.456;7.622;2024-02-28T08:59:07;3.80;99.90
15115;DHT22;7658;51.456;7.622;2024-02-28T09:01:33;3.90;99.90
15115;DHT22;7658;51.456;7.622;2024-02-28T09:04:00;4.00;99.90
15115;DHT22;7658;51.456;7.622;2024-02-28T09:06:26;4.10;99.90
15115;DHT22;7658;51.456;7.622;2024-02-28T09:08:52;4.10;99.90
15115;DHT22;7658;51.456;7.622;2024-02-28T09:11:18;4.10;99.90
15115;DHT22;7658;51.456;7.622;2024-02-28T09:13:44;4.10;99.90
15115;DHT22;7658;51.456;7.622;2024-02-28T09:16:10;4.20;99.90
15115;DHT22;7658;51.456;7.622;2024-02-28T09:18:35;4.20;99.90
15115;DHT22;7658;51.456;7.622;2024-02-28T09:21:01;4.20;99.90
15115;DHT22;7658;51.456;7.622;2024-02-28T09:23:27;4.20;99.90
15115;DHT22;7658;51.456;7.622;2024-02-28T09:25:53;4.20;99.90
15115;DHT22;7658;51.456;7.622;2024-02-28T09:28:18;4.30;99.90
15115;DHT22;7658;51.456;7.622;2024-02-28T09:30:44;4.40;99.90
15115;DHT22;7658;51.456;7.622;2024-02-28T09:33:13;4.50;99.90
15115;DHT22;7658;51.456;7.622;2024-02-28T09:35:39;4.50;99.90
15115;DHT22;7658;51.456;7.622;2024-02-28T09:38:05;4.60;99.90
15115;DHT22;7658;51.456;7.622;2024-02-28T09:40:31;4.70;99.90
15115;DHT22;7658;51.456;7.622;2024-02-28T09:43:01;4.70;99.90
15115;DHT22;7658;51.456;7.622;2024-02-28T09:45:28;4.70;99.90
15115;DHT22;7658;51.456;7.622;2024-02-28T09:47:57;4.70;99.90
15115;DHT22;7658;51.456;7.622;2024-02-28T09:50:25;4.80;99.90
15115;DHT22;7658;51.456;7.622;2024-02-28T09:52:51;4.90;99.90
15115;DHT22;7658;51.456;7.622;2024-02-28T09:55:16;4.90;99.90
15115;DHT22;7658;51.456;7.622;2024-02-28T09:57:43;5.00;99.90
15115;DHT22;7658;51.456;7.622;2024-02-28T10:00:13;5.00;99.90
15115;DHT22;7658;51.456;7.622;2024-02-28T10:02:41;5.10;99.90
15115;DHT22;7658;51.456;7.622;2024-02-28T10:05:08;5.30;99.90
15115;DHT22;7658;51.456;7.622;2024-02-28T10:07:35;5.40;99.90
15115;DHT22;7658;51.456;7.622;2024-02-28T10:10:01;5.50;99.90
15115;DHT22;7658;51.456;7.622;2024-02-28T10:12:26;5.60;99.90
15115;DHT22;7658;51.456;7.622;2024-02-28T10:14:52;5.70;99.90
15115;DHT22;7658;51.456;7.622;2024-02-28T10:17:18;5.70;99.90
15115;DHT22;7658;51.456;7.622;2024-02-28T10:19:44;5.70;99.90
15115;DHT22;7658;51.456;7.622;2024-02-28T10:22:09;5.70;99.90
15115;DHT22;7658;51.456;7.622;2024-02-28T10:24:35;5.80;99.90
15115;DHT22;7658;51.456;7.622;2024-02-28T10:27:03;5.90;99.90
15115;DHT22;7658;51.456;7.622;2024-02-28T10:29:29;5.90;99.90
15115;DHT22;7658;51.456;7.622;2024-02-28T10:31:58;6.00;99.90
15115;DHT22;7658;51.456;7.622;2024-02-28T10:34:25;6.10;99.90
15115;DHT22;7658;51.456;7.622;2024-02-28T10:36:51;6.10;99.90
15115;DHT22;7658;51.456;7.622;2024-02-28T10:39:17;6.10;13.20
15115;DHT22;7658;51.456;7.622;2024-02-28T10:41:45;6.10;17.80
15115;DHT22;7658;51.456;7.622;2024-02-28T10:44:12;6.10;19.10
15115;DHT22;7658;51.456;7.622;2024-02-28T10:46:38;6.20;1.00
15115;DHT22;7658;51.456;7.622;2024-02-28T10:49:09;6.40;96.50
15115;DHT22;7658;51.456;7.622;2024-02-28T10:51:35;6.60;1.00
15115;DHT22;7658;51.456;7.622;2024-02-28T10:54:13;6.90;10.70
15115;DHT22;7658;51.456;7.622;2024-02-28T10:56:42;7.20;1.00
15115;DHT22;7658;51.456;7.622;2024-02-28T10:59:09;7.40;1.00
15115;DHT22;7658;51.456;7.622;2024-02-28T11:01:44;7.30;99.90
15115;DHT22;7658;51.456;7.622;2024-02-28T11:04:12;7.40;99.90
15115;DHT22;7658;51.456;7.622;2024-02-28T11:06:58;7.50;99.90
15115;DHT22;7658;51.456;7.622;2024-02-28T11:09:25;7.50;99.90
15115;DHT22;7658;51.456;7.622;2024-02-28T11:11:54;7.50;99.90
15115;DHT22;7658;51.456;7.622;2024-02-28T11:14:21;7.60;99.90
15115;DHT22;7658;51.456;7.622;2024-02-28T11:17:10;7.70;1.00
15115;DHT22;7658;51.456;7.622;2024-02-28T11:19:36;7.70;99.90
15115;DHT22;7658;51.456;7.622;2024-02-28T11:22:02;7.80;1.00
15115;DHT22;7658;51.456;7.622;2024-02-28T11:24:31;7.90;99.90
15115;DHT22;7658;51.456;7.622;2024-02-28T11:26:57;8.10;99.90
15115;DHT22;7658;51.456;7.622;2024-02-28T11:29:25;8.10;1.00
15115;DHT22;7658;51.456;7.622;2024-02-28T11:31:52;8.20;1.00
15115;DHT22;7658;51.456;7.622;2024-02-28T11:34:17;8.30;1.00
15115;DHT22;7658;51.456;7.622;2024-02-28T11:36:43;8.10;1.00
15115;DHT22;7658;51.456;7.622;2024-02-28T11:39:13;8.20;99.90
15115;DHT22;7658;51.456;7.622;2024-02-28T11:41:39;8.40;99.90
15115;DHT22;7658;51.456;7.622;2024-02-28T11:44:05;8.50;1.00
15115;DHT22;7658;51.456;7.622;2024-02-28T11:46:31;8.80;99.90
15115;DHT22;7658;51.456;7.622;2024-02-28T11:48:58;9.00;1.00
15115;DHT22;7658;51.456;7.622;2024-02-28T11:51:24;9.10;1.00
15115;DHT22;7658;51.456;7.622;2024-02-28T11:53:50;9.00;1.00
15115;DHT22;7658;51.456;7.622;2024-02-28T11:56:16;8.60;13.00
15115;DHT22;7658;51.456;7.622;2024-02-28T11:58:54;8.60;99.90
15115;DHT22;7658;51.456;7.622;2024-02-28T12:01:42;8.70;92.70
15115;DHT22;7658;51.456;7.622;2024-02-28T12:04:09;8.80;99.90
15115;DHT22;7658;51.456;7.622;2024-02-28T12:06:37;9.00;27.20
15115;DHT22;7658;51.456;7.622;2024-02-28T12:09:04;9.20;42.20
15115;DHT22;7658;51.456;7.622;2024-02-28T12:11:31;9.40;99.90
15115;DHT22;7658;51.456;7.622;2024-02-28T12:13:57;9.40;99.90
15115;DHT22;7658;51.456;7.622;2024-02-28T12:16:26;9.50;1.00
15115;DHT22;7658;51.456;7.622;2024-02-28T12:18:53;9.50;1.00
15115;DHT22;7658;51.456;7.622;2024-02-28T12:21:22;9.50;1.00
15115;DHT22;7658;51.456;7.622;2024-02-28T12:23:49;9.60;99.90
15115;DHT22;7658;51.456;7.622;2024-02-28T12:26:18;9.60;1.00
15115;DHT22;7658;51.456;7.622;2024-02-28T12:28:45;9.70;1.00
15115;DHT22;7658;51.456;7.622;2024-02-28T12:31:11;9.70;99.90
15115;DHT22;7658;51.456;7.622;2024-02-28T12:33:38;9.70;99.90
15115;DHT22;7658;51.456;7.622;2024-02-28T12:36:04;9.80;1.00
15115;DHT22;7658;51.456;7.622;2024-02-28T12:38:30;9.70;1.00
15115;DHT22;7658;51.456;7.622;2024-02-28T12:40:56;9.80;99.90
15115;DHT22;7658;51.456;7.622;2024-02-28T12:43:23;9.70;1.00
15115;DHT22;7658;51.456;7.622;2024-02-28T12:45:48;9.70;1.00
15115;DHT22;7658;51.456;7.622;2024-02-28T12:48:14;9.90;1.00
15115;DHT22;7658;51.456;7.622;2024-02-28T12:50:40;10.20;1.00
15115;DHT22;7658;51.456;7.622;2024-02-28T12:53:06;10.20;1.00
15115;DHT22;7658;51.456;7.622;2024-02-28T12:55:32;10.30;1.00
15115;DHT22;7658;51.456;7.622;2024-02-28T12:57:57;10.50;1.00
15115;DHT22;7658;51.456;7.622;2024-02-28T13:00:25;10.40;1.00
15115;DHT22;7658;51.456;7.622;2024-02-28T13:02:51;10.30;99.90
15115;DHT22;7658;51.456;7.622;2024-02-28T13:05:17;10.30;1.00
15115;DHT22;7658;51.456;7.622;2024-02-28T13:07:43;10.50;1.00
15115;DHT22;7658;51.456;7.622;2024-02-28T13:10:09;10.50;1.00
15115;DHT22;7658;51.456;7.622;2024-02-28T13:12:35;10.60;1.00
15115;DHT22;7658;51.456;7.622;2024-02-28T13:15:01;10.90;1.00
15115;DHT22;7658;51.456;7.622;2024-02-28T13:17:28;11.00;99.90
15115;DHT22;7658;51.456;7.622;2024-02-28T13:19:54;11.00;99.90
15115;DHT22;7658;51.456;7.622;2024-02-28T13:22:19;11.10;1.00
15115;DHT22;7658;51.456;7.622;2024-02-28T13:24:45;10.90;28.10
15115;DHT22;7658;51.456;7.622;2024-02-28T13:27:11;10.60;99.90
15115;DHT22;7658;51.456;7.622;2024-02-28T13:29:37;10.60;1.00
15115;DHT22;7658;51.456;7.622;2024-02-28T13:32:03;10.80;99.90
15115;DHT22;7658;51.456;7.622;2024-02-28T13:34:29;10.70;99.90
15115;DHT22;7658;51.456;7.622;2024-02-28T13:36:55;10.70;1.00
15115;DHT22;7658;51.456;7.622;2024-02-28T13:39:21;10.30;68.10
15115;DHT22;7658;51.456;7.622;2024-02-28T13:41:49;10.20;1.00
15115;DHT22;7658;51.456;7.622;2024-02-28T13:44:19;10.10;99.90
15115;DHT22;7658;51.456;7.622;2024-02-28T13:46:45;9.90;99.90
15115;DHT22;7658;51.456;7.622;2024-02-28T13:49:13;9.70;1.00
15115;DHT22;7658;51.456;7.622;2024-02-28T13:51:39;9.60;23.90
15115;DHT22;7658;51.456;7.622;2024-02-28T13:54:05;9.60;77.70
15115;DHT22;7658;51.456;7.622;2024-02-28T13:56:31;9.60;99.90
15115;DHT22;7658;51.456;7.622;2024-02-28T13:58:57;9.70;1.00
15115;DHT22;7658;51.456;7.622;2024-02-28T14:01:23;9.70;1.00
15115;DHT22;7658;51.456;7.622;2024-02-28T14:03:49;9.70;99.90
15115;DHT22;7658;51.456;7.622;2024-02-28T14:06:15;9.80;99.90
15115;DHT22;7658;51.456;7.622;2024-02-28T14:08:41;9.80;99.90
15115;DHT22;7658;51.456;7.622;2024-02-28T14:11:06;9.70;99.90
15115;DHT22;7658;51.456;7.622;2024-02-28T14:13:32;9.90;1.00
15115;DHT22;7658;51.456;7.622;2024-02-28T14:15:58;9.90;1.00
15115;DHT22;7658;51.456;7.622;2024-02-28T14:18:24;9.80;99.90
15115;DHT22;7658;51.456;7.622;2024-02-28T14:20:50;9.70;1.00
15115;DHT22;7658;51.456;7.622;2024-02-28T14:23:16;9.80;1.00
15115;DHT22;7658;51.456;7.622;2024-02-28T14:25:43;9.80;1.00
15115;DHT22;7658;51.456;7.622;2024-02-28T14:28:09;9.90;1.00
15115;DHT22;7658;51.456;7.622;2024-02-28T14:30:35;9.80;99.90
15115;DHT22;7658;51.456;7.622;2024-02-28T14:33:00;9.80;99.90
15115;DHT22;7658;51.456;7.622;2024-02-28T14:35:26;9.60;99.90
15115;DHT22;7658;51.456;7.622;2024-02-28T14:37:52;9.50;99.90
15115;DHT22;7658;51.456;7.622;2024-02-28T14:40:18;9.50;99.90
15115;DHT22;7658;51.456;7.622;2024-02-28T14:42:44;9.50;99.90
15115;DHT22;7658;51.456;7.622;2024-02-28T14:45:13;9.40;99.90
15115;DHT22;7658;51.456;7.622;2024-02-28T14:47:43;9.40;99.90
15115;DHT22;7658;51.456;7.622;2024-02-28T14:50:10;9.40;1.00
15115;DHT22;7658;51.456;7.622;2024-02-28T14:52:40;9.50;1.00
15115;DHT22;7658;51.456;7.622;2024-02-28T14:55:10;9.40;99.90
15115;DHT22;7658;51.456;7.622;2024-02-28T14:57:36;9.40;99.90
15115;DHT22;7658;51.456;7.622;2024-02-28T15:00:03;9.40;1.00
15115;DHT22;7658;51.456;7.622;2024-02-28T15:02:34;9.40;1.00
15115;DHT22;7658;51.456;7.622;2024-02-28T15:05:01;9.30;1.00
15115;DHT22;7658;51.456;7.622;2024-02-28T15:07:31;9.30;1.00
15115;DHT22;7658;51.456;7.622;2024-02-28T15:09:57;9.30;1.00
15115;DHT22;7658;51.456;7.622;2024-02-28T15:12:26;9.30;1.00
15115;DHT22;7658;51.456;7.622;2024-02-28T15:14:52;9.30;1.00
15115;DHT22;7658;51.456;7.622;2024-02-28T15:17:20;9.30;1.00
15115;DHT22;7658;51.456;7.622;2024-02-28T15:19:45;9.30;1.00
15115;DHT22;7658;51.456;7.622;2024-02-28T15:22:11;9.30;1.00
15115;DHT22;7658;51.456;7.622;2024-02-28T15:24:37;9.30;1.00
15115;DHT22;7658;51.456;7.622;2024-02-28T15:27:08;9.30;1.00
15115;DHT22;7658;51.456;7.622;2024-02-28T15:29:34;9.30;1.00
15115;DHT22;7658;51.456;7.622;2024-02-28T15:32:01;9.20;1.00
15115;DHT22;7658;51.456;7.622;2024-02-28T15:34:26;9.10;1.00
15115;DHT22;7658;51.456;7.622;2024-02-28T15:36:53;9.10;99.90
15115;DHT22;7658;51.456;7.622;2024-02-28T15:39:18;9.00;99.90
15115;DHT22;7658;51.456;7.622;2024-02-28T15:41:44;9.00;99.90
15115;DHT22;7658;51.456;7.622;2024-02-28T15:44:10;8.90;1.00
15115;DHT22;7658;51.456;7.622;2024-02-28T15:46:36;8.90;1.00
15115;DHT22;7658;51.456;7.622;2024-02-28T15:49:03;8.80;1.00
15115;DHT22;7658;51.456;7.622;2024-02-28T15:51:30;8.80;1.00
15115;DHT22;7658;51.456;7.622;2024-02-28T15:53:56;8.80;1.00
15115;DHT22;7658;51.456;7.622;2024-02-28T15:56:23;8.70;1.00
15115;DHT22;7658;51.456;7.622;2024-02-28T15:58:50;8.70;1.00
15115;DHT22;7658;51.456;7.622;2024-02-28T16:01:16;8.60;1.00